Shelton, CT (06484)

12:38 AM EDT on April 19, 2015 (GMT -0400)
Nells Rock Road Area | | Change Station
CLOSE
Current Station
Personal Weather Station
Location: Shelton, CT
Elevation: 417 ft
Nearby Weather Stations

Elev 417 ft 41.31 °N, 73.11 °W | Updated 4 minutes ago

Clear
Clear
56.2 °F
Feels Like 56.2 °F
N
1.0
Wind Variable Wind from ESE
Gusts 1.0 mph

Today
High -- | Low -- °F
--% Chance of Precip.
Yesterday
High -- | Low -- °F
Precip. -- in
6:07 AM 7:36 PM
New Moon, 0% visible
Pressure 30.04 in
Visibility 10.0 miles
Clouds Clear
Dew Point 27 °F
Humidity 33%
Rainfall 11.15 in
Snow Depth Not available.
UV 0 out of 12
Pollen 11.30 out of 12
Air Quality Not available.
Flu Activity Widespread
METAR KBDR 190352Z 36011KT 10SM CLR 17/M03 A3004 RMK AO2 PK WND 34026/0319 SLP173 T01721028

More Conditions Fewer Conditions

Pressure 30.04 in
Visibility 10.0 miles
Clouds Clear
Dew Point 27 °F
Humidity 33%
Rainfall 11.15 in
Snow Depth Not available.
UV 0 out of 12
Pollen 11.30 out of 12
Air Quality Not available.
Flu Activity Widespread
METAR KBDR 190352Z 36011KT 10SM CLR 17/M03 A3004 RMK AO2 PK WND 34026/0319 SLP173 T01721028

More Conditions Fewer Conditions

10-Day Weather Forecast

Almanac

Astronomy

Apr. 19, 2015 Rise Set
Actual Time
Civil Twilight
Nautical Twilight
Astronomical Twilight
Moon
Length of Visible Light
Length of Day
Tomorrow will be .
, % of the Moon is Illuminated

Today's Extremes

State Highs State Lows

Community

WunderPhotos

Upload Photos

1,814,723 photos uploaded!

WunderBlogs® & News

Nearby

Air Quality

  Air Quality AQ Index Pollutant
Not available.

Snow Depth

Station Depth Elevation

Earthquake Activity

City Distance Mag. Time & Date
Minimum magnitude displayed is 2.5.

Coastal Water Temperatures

Place Temperature

Stations

Nearby Weather Stations

Station Location Temp. Windchill Dew Point Humidity Wind Precip. Elev Updated Type